sensor_id;sensor_type;location;lat;lon;timestamp;P1;durP1;ratioP1;P2;durP2;ratioP2
53036;SDS011;38924;52.134;4.666;2023-07-30T00:00:18;38.05;;;9.13;;
53036;SDS011;38924;52.134;4.666;2023-07-30T00:02:44;34.60;;;7.28;;
53036;SDS011;38924;52.134;4.666;2023-07-30T00:05:10;27.13;;;7.50;;
53036;SDS011;38924;52.134;4.666;2023-07-30T00:07:38;29.77;;;7.57;;
53036;SDS011;38924;52.134;4.666;2023-07-30T00:10:04;24.88;;;6.57;;
53036;SDS011;38924;52.134;4.666;2023-07-30T00:12:29;41.75;;;8.88;;
53036;SDS011;38924;52.134;4.666;2023-07-30T00:14:55;29.50;;;8.82;;
53036;SDS011;38924;52.134;4.666;2023-07-30T00:17:21;33.10;;;8.68;;
53036;SDS011;38924;52.134;4.666;2023-07-30T00:19:46;29.42;;;8.32;;
53036;SDS011;38924;52.134;4.666;2023-07-30T00:22:12;37.85;;;9.65;;
53036;SDS011;38924;52.134;4.666;2023-07-30T00:24:38;27.27;;;7.78;;
53036;SDS011;38924;52.134;4.666;2023-07-30T00:27:03;36.38;;;8.95;;
53036;SDS011;38924;52.134;4.666;2023-07-30T00:29:29;35.10;;;8.90;;
53036;SDS011;38924;52.134;4.666;2023-07-30T00:31:55;36.03;;;8.13;;
53036;SDS011;38924;52.134;4.666;2023-07-30T00:34:20;28.17;;;7.95;;
53036;SDS011;38924;52.134;4.666;2023-07-30T00:36:47;29.98;;;8.65;;
53036;SDS011;38924;52.134;4.666;2023-07-30T00:39:12;32.05;;;8.10;;
53036;SDS011;38924;52.134;4.666;2023-07-30T00:41:38;39.22;;;7.63;;
53036;SDS011;38924;52.134;4.666;2023-07-30T00:44:04;30.13;;;8.75;;
53036;SDS011;38924;52.134;4.666;2023-07-30T00:46:30;30.02;;;8.10;;
53036;SDS011;38924;52.134;4.666;2023-07-30T00:49:03;40.92;;;9.20;;
53036;SDS011;38924;52.134;4.666;2023-07-30T00:51:29;45.40;;;8.32;;
53036;SDS011;38924;52.134;4.666;2023-07-30T00:53:55;38.95;;;8.95;;
53036;SDS011;38924;52.134;4.666;2023-07-30T00:56:21;35.95;;;8.45;;
53036;SDS011;38924;52.134;4.666;2023-07-30T00:58:47;33.47;;;9.07;;
53036;SDS011;38924;52.134;4.666;2023-07-30T01:01:13;24.17;;;8.40;;
53036;SDS011;38924;52.134;4.666;2023-07-30T01:03:40;33.95;;;8.57;;
53036;SDS011;38924;52.134;4.666;2023-07-30T01:06:06;44.25;;;9.00;;
53036;SDS011;38924;52.134;4.666;2023-07-30T01:08:35;34.30;;;9.00;;
53036;SDS011;38924;52.134;4.666;2023-07-30T01:11:02;27.55;;;8.73;;
53036;SDS011;38924;52.134;4.666;2023-07-30T01:13:28;26.85;;;7.95;;
53036;SDS011;38924;52.134;4.666;2023-07-30T01:15:54;32.58;;;9.35;;
53036;SDS011;38924;52.134;4.666;2023-07-30T01:18:20;31.95;;;9.00;;
53036;SDS011;38924;52.134;4.666;2023-07-30T01:20:45;32.70;;;7.88;;
53036;SDS011;38924;52.134;4.666;2023-07-30T01:23:11;37.75;;;9.05;;
53036;SDS011;38924;52.134;4.666;2023-07-30T01:25:37;39.42;;;9.10;;
53036;SDS011;38924;52.134;4.666;2023-07-30T01:28:04;38.83;;;12.23;;
53036;SDS011;38924;52.134;4.666;2023-07-30T01:30:32;30.05;;;8.25;;
53036;SDS011;38924;52.134;4.666;2023-07-30T01:33:02;40.88;;;10.68;;
53036;SDS011;38924;52.134;4.666;2023-07-30T01:35:29;27.85;;;10.60;;
53036;SDS011;38924;52.134;4.666;2023-07-30T01:37:58;43.92;;;10.43;;
53036;SDS011;38924;52.134;4.666;2023-07-30T01:40:24;30.83;;;10.48;;
53036;SDS011;38924;52.134;4.666;2023-07-30T01:42:50;43.30;;;12.57;;
53036;SDS011;38924;52.134;4.666;2023-07-30T01:45:16;41.45;;;11.70;;
53036;SDS011;38924;52.134;4.666;2023-07-30T01:47:42;33.15;;;10.68;;
53036;SDS011;38924;52.134;4.666;2023-07-30T01:50:08;34.28;;;12.40;;
53036;SDS011;38924;52.134;4.666;2023-07-30T01:52:36;32.88;;;10.63;;
53036;SDS011;38924;52.134;4.666;2023-07-30T01:55:03;43.15;;;11.30;;
53036;SDS011;38924;52.134;4.666;2023-07-30T01:57:29;36.17;;;11.63;;
53036;SDS011;38924;52.134;4.666;2023-07-30T01:59:55;39.17;;;12.13;;
53036;SDS011;38924;52.134;4.666;2023-07-30T02:02:20;43.80;;;13.13;;
53036;SDS011;38924;52.134;4.666;2023-07-30T02:04:46;46.17;;;12.57;;
53036;SDS011;38924;52.134;4.666;2023-07-30T02:07:12;38.45;;;11.38;;
53036;SDS011;38924;52.134;4.666;2023-07-30T02:09:37;40.92;;;12.15;;
53036;SDS011;38924;52.134;4.666;2023-07-30T02:12:03;35.28;;;11.43;;
53036;SDS011;38924;52.134;4.666;2023-07-30T02:14:30;35.22;;;11.57;;
53036;SDS011;38924;52.134;4.666;2023-07-30T02:17:05;46.25;;;11.90;;
53036;SDS011;38924;52.134;4.666;2023-07-30T02:19:30;40.85;;;11.32;;
53036;SDS011;38924;52.134;4.666;2023-07-30T02:21:57;46.38;;;11.93;;
53036;SDS011;38924;52.134;4.666;2023-07-30T02:24:23;34.25;;;10.15;;
53036;SDS011;38924;52.134;4.666;2023-07-30T02:26:48;32.08;;;11.98;;
53036;SDS011;38924;52.134;4.666;2023-07-30T02:29:14;46.55;;;12.75;;
53036;SDS011;38924;52.134;4.666;2023-07-30T02:31:40;30.90;;;10.38;;
53036;SDS011;38924;52.134;4.666;2023-07-30T02:34:05;31.02;;;10.68;;
53036;SDS011;38924;52.134;4.666;2023-07-30T02:36:33;31.85;;;10.05;;
53036;SDS011;38924;52.134;4.666;2023-07-30T02:38:59;48.85;;;11.82;;
53036;SDS011;38924;52.134;4.666;2023-07-30T02:41:24;31.73;;;10.32;;
53036;SDS011;38924;52.134;4.666;2023-07-30T02:43:52;31.50;;;11.05;;
53036;SDS011;38924;52.134;4.666;2023-07-30T02:46:18;25.05;;;8.60;;
53036;SDS011;38924;52.134;4.666;2023-07-30T02:48:44;31.42;;;11.32;;
53036;SDS011;38924;52.134;4.666;2023-07-30T02:51:09;28.75;;;9.10;;
53036;SDS011;38924;52.134;4.666;2023-07-30T02:53:35;39.15;;;11.02;;
53036;SDS011;38924;52.134;4.666;2023-07-30T02:56:01;33.92;;;9.57;;
53036;SDS011;38924;52.134;4.666;2023-07-30T02:58:27;29.15;;;10.23;;
53036;SDS011;38924;52.134;4.666;2023-07-30T03:00:52;30.90;;;9.52;;
53036;SDS011;38924;52.134;4.666;2023-07-30T03:03:18;42.28;;;10.43;;
53036;SDS011;38924;52.134;4.666;2023-07-30T03:05:44;43.28;;;11.02;;
53036;SDS011;38924;52.134;4.666;2023-07-30T03:08:09;41.75;;;11.48;;
53036;SDS011;38924;52.134;4.666;2023-07-30T03:10:36;35.00;;;10.43;;
53036;SDS011;38924;52.134;4.666;2023-07-30T03:13:01;42.58;;;12.20;;
53036;SDS011;38924;52.134;4.666;2023-07-30T03:15:27;44.17;;;11.70;;
53036;SDS011;38924;52.134;4.666;2023-07-30T03:17:53;34.88;;;10.50;;
53036;SDS011;38924;52.134;4.666;2023-07-30T03:20:19;32.13;;;11.32;;
53036;SDS011;38924;52.134;4.666;2023-07-30T03:22:44;32.45;;;9.50;;
53036;SDS011;38924;52.134;4.666;2023-07-30T03:25:10;33.88;;;8.93;;
53036;SDS011;38924;52.134;4.666;2023-07-30T03:27:36;30.50;;;8.15;;
53036;SDS011;38924;52.134;4.666;2023-07-30T03:30:01;23.00;;;7.47;;
53036;SDS011;38924;52.134;4.666;2023-07-30T03:32:27;23.58;;;7.60;;
53036;SDS011;38924;52.134;4.666;2023-07-30T03:34:54;22.35;;;5.45;;
53036;SDS011;38924;52.134;4.666;2023-07-30T03:37:20;24.15;;;6.20;;
53036;SDS011;38924;52.134;4.666;2023-07-30T03:39:53;20.95;;;5.25;;
53036;SDS011;38924;52.134;4.666;2023-07-30T03:42:18;21.00;;;5.32;;
53036;SDS011;38924;52.134;4.666;2023-07-30T03:44:44;13.32;;;5.03;;
53036;SDS011;38924;52.134;4.666;2023-07-30T03:47:10;20.67;;;5.75;;
53036;SDS011;38924;52.134;4.666;2023-07-30T03:49:35;15.52;;;5.97;;
53036;SDS011;38924;52.134;4.666;2023-07-30T03:52:01;22.92;;;6.18;;
53036;SDS011;38924;52.134;4.666;2023-07-30T03:54:27;25.70;;;5.93;;
53036;SDS011;38924;52.134;4.666;2023-07-30T03:56:53;15.05;;;4.65;;
53036;SDS011;38924;52.134;4.666;2023-07-30T03:59:20;18.42;;;5.65;;
53036;SDS011;38924;52.134;4.666;2023-07-30T04:01:45;13.18;;;4.35;;
53036;SDS011;38924;52.134;4.666;2023-07-30T04:04:11;16.40;;;4.93;;
53036;SDS011;38924;52.134;4.666;2023-07-30T04:06:37;13.50;;;4.65;;
53036;SDS011;38924;52.134;4.666;2023-07-30T04:09:02;15.23;;;4.40;;
53036;SDS011;38924;52.134;4.666;2023-07-30T04:11:29;16.40;;;6.13;;
53036;SDS011;38924;52.134;4.666;2023-07-30T04:13:56;18.80;;;6.00;;
53036;SDS011;38924;52.134;4.666;2023-07-30T04:16:22;7.60;;;4.15;;
53036;SDS011;38924;52.134;4.666;2023-07-30T04:18:48;18.70;;;4.63;;
53036;SDS011;38924;52.134;4.666;2023-07-30T04:21:13;10.10;;;3.28;;
53036;SDS011;38924;52.134;4.666;2023-07-30T04:23:40;10.40;;;4.18;;
53036;SDS011;38924;52.134;4.666;2023-07-30T04:26:06;6.15;;;3.38;;
53036;SDS011;38924;52.134;4.666;2023-07-30T04:28:32;14.13;;;3.90;;
53036;SDS011;38924;52.134;4.666;2023-07-30T04:30:58;13.63;;;4.25;;
53036;SDS011;38924;52.134;4.666;2023-07-30T04:33:24;8.15;;;3.60;;
53036;SDS011;38924;52.134;4.666;2023-07-30T04:35:51;12.95;;;4.60;;
53036;SDS011;38924;52.134;4.666;2023-07-30T04:38:17;11.10;;;4.03;;
53036;SDS011;38924;52.134;4.666;2023-07-30T04:40:43;13.57;;;4.72;;
53036;SDS011;38924;52.134;4.666;2023-07-30T04:43:09;12.52;;;4.45;;
53036;SDS011;38924;52.134;4.666;2023-07-30T04:45:35;15.13;;;3.47;;
53036;SDS011;38924;52.134;4.666;2023-07-30T04:48:02;9.90;;;3.90;;
53036;SDS011;38924;52.134;4.666;2023-07-30T04:50:28;10.18;;;4.20;;
53036;SDS011;38924;52.134;4.666;2023-07-30T04:52:53;12.63;;;4.57;;
53036;SDS011;38924;52.134;4.666;2023-07-30T04:55:19;12.73;;;3.97;;
53036;SDS011;38924;52.134;4.666;2023-07-30T04:57:45;13.10;;;4.80;;
53036;SDS011;38924;52.134;4.666;2023-07-30T05:00:13;13.13;;;4.10;;
53036;SDS011;38924;52.134;4.666;2023-07-30T05:02:39;9.68;;;4.00;;
53036;SDS011;38924;52.134;4.666;2023-07-30T05:05:05;15.93;;;4.38;;
53036;SDS011;38924;52.134;4.666;2023-07-30T05:07:31;9.80;;;4.05;;
53036;SDS011;38924;52.134;4.666;2023-07-30T05:09:56;10.15;;;4.05;;
53036;SDS011;38924;52.134;4.666;2023-07-30T05:12:22;7.85;;;3.92;;
53036;SDS011;38924;52.134;4.666;2023-07-30T05:14:48;15.85;;;3.78;;
53036;SDS011;38924;52.134;4.666;2023-07-30T05:17:13;8.88;;;3.47;;
53036;SDS011;38924;52.134;4.666;2023-07-30T05:19:39;14.27;;;4.13;;
53036;SDS011;38924;52.134;4.666;2023-07-30T05:22:07;8.07;;;3.08;;
53036;SDS011;38924;52.134;4.666;2023-07-30T05:24:33;9.35;;;3.53;;
53036;SDS011;38924;52.134;4.666;2023-07-30T05:26:59;11.38;;;4.10;;
53036;SDS011;38924;52.134;4.666;2023-07-30T05:29:26;8.70;;;3.75;;
53036;SDS011;38924;52.134;4.666;2023-07-30T05:31:51;12.90;;;4.03;;
53036;SDS011;38924;52.134;4.666;2023-07-30T05:34:17;11.80;;;4.18;;
53036;SDS011;38924;52.134;4.666;2023-07-30T05:36:43;17.20;;;4.63;;
53036;SDS011;38924;52.134;4.666;2023-07-30T05:39:09;22.95;;;5.38;;
53036;SDS011;38924;52.134;4.666;2023-07-30T05:41:34;14.25;;;4.63;;
53036;SDS011;38924;52.134;4.666;2023-07-30T05:44:00;22.90;;;6.00;;
53036;SDS011;38924;52.134;4.666;2023-07-30T05:46:25;25.25;;;7.32;;
53036;SDS011;38924;52.134;4.666;2023-07-30T05:48:51;27.90;;;7.18;;
53036;SDS011;38924;52.134;4.666;2023-07-30T05:51:17;32.13;;;6.93;;
53036;SDS011;38924;52.134;4.666;2023-07-30T05:53:43;33.78;;;6.75;;
53036;SDS011;38924;52.134;4.666;2023-07-30T05:56:08;26.27;;;6.45;;
53036;SDS011;38924;52.134;4.666;2023-07-30T05:58:34;34.67;;;7.18;;
53036;SDS011;38924;52.134;4.666;2023-07-30T06:01:00;38.70;;;6.85;;
53036;SDS011;38924;52.134;4.666;2023-07-30T06:03:25;31.38;;;7.78;;
53036;SDS011;38924;52.134;4.666;2023-07-30T06:05:51;33.80;;;8.02;;
53036;SDS011;38924;52.134;4.666;2023-07-30T06:08:17;28.10;;;6.10;;
53036;SDS011;38924;52.134;4.666;2023-07-30T06:10:42;23.20;;;7.82;;
53036;SDS011;38924;52.134;4.666;2023-07-30T06:13:10;24.00;;;5.78;;
53036;SDS011;38924;52.134;4.666;2023-07-30T06:15:36;30.65;;;8.15;;
53036;SDS011;38924;52.134;4.666;2023-07-30T06:18:02;26.88;;;6.30;;
53036;SDS011;38924;52.134;4.666;2023-07-30T06:20:29;27.60;;;7.03;;
53036;SDS011;38924;52.134;4.666;2023-07-30T06:22:55;25.05;;;5.80;;
53036;SDS011;38924;52.134;4.666;2023-07-30T06:25:21;23.10;;;7.43;;
53036;SDS011;38924;52.134;4.666;2023-07-30T06:27:47;29.02;;;7.40;;
53036;SDS011;38924;52.134;4.666;2023-07-30T06:30:15;26.50;;;7.05;;
53036;SDS011;38924;52.134;4.666;2023-07-30T06:32:41;29.95;;;6.97;;
53036;SDS011;38924;52.134;4.666;2023-07-30T06:35:07;20.55;;;5.95;;
53036;SDS011;38924;52.134;4.666;2023-07-30T06:37:32;31.17;;;6.80;;
53036;SDS011;38924;52.134;4.666;2023-07-30T06:39:58;29.05;;;8.00;;
53036;SDS011;38924;52.134;4.666;2023-07-30T06:42:25;22.85;;;5.72;;
53036;SDS011;38924;52.134;4.666;2023-07-30T06:44:53;20.08;;;8.48;;
53036;SDS011;38924;52.134;4.666;2023-07-30T06:47:19;24.00;;;7.50;;
53036;SDS011;38924;52.134;4.666;2023-07-30T06:49:45;27.40;;;7.63;;
53036;SDS011;38924;52.134;4.666;2023-07-30T06:52:10;24.30;;;6.97;;
53036;SDS011;38924;52.134;4.666;2023-07-30T06:54:36;22.77;;;7.15;;
53036;SDS011;38924;52.134;4.666;2023-07-30T06:57:04;19.75;;;6.95;;
53036;SDS011;38924;52.134;4.666;2023-07-30T06:59:31;33.35;;;7.60;;
53036;SDS011;38924;52.134;4.666;2023-07-30T07:01:57;22.35;;;7.38;;
53036;SDS011;38924;52.134;4.666;2023-07-30T07:04:22;18.77;;;6.60;;
53036;SDS011;38924;52.134;4.666;2023-07-30T07:06:48;23.73;;;6.78;;
53036;SDS011;38924;52.134;4.666;2023-07-30T07:09:14;26.23;;;6.90;;
53036;SDS011;38924;52.134;4.666;2023-07-30T07:11:39;20.10;;;6.85;;
53036;SDS011;38924;52.134;4.666;2023-07-30T07:14:06;23.33;;;6.97;;
53036;SDS011;38924;52.134;4.666;2023-07-30T07:16:31;26.90;;;9.50;;
53036;SDS011;38924;52.134;4.666;2023-07-30T07:18:59;21.27;;;6.47;;
53036;SDS011;38924;52.134;4.666;2023-07-30T07:21:25;22.00;;;6.88;;
53036;SDS011;38924;52.134;4.666;2023-07-30T07:23:52;27.38;;;7.00;;
53036;SDS011;38924;52.134;4.666;2023-07-30T07:26:17;16.55;;;6.70;;
53036;SDS011;38924;52.134;4.666;2023-07-30T07:28:43;20.52;;;5.95;;
53036;SDS011;38924;52.134;4.666;2023-07-30T07:31:09;15.48;;;4.88;;
53036;SDS011;38924;52.134;4.666;2023-07-30T07:33:34;12.52;;;4.68;;
53036;SDS011;38924;52.134;4.666;2023-07-30T07:36:06;15.20;;;4.93;;
53036;SDS011;38924;52.134;4.666;2023-07-30T07:38:33;13.35;;;4.60;;
53036;SDS011;38924;52.134;4.666;2023-07-30T07:40:59;13.65;;;5.85;;
53036;SDS011;38924;52.134;4.666;2023-07-30T07:43:25;8.82;;;4.80;;
53036;SDS011;38924;52.134;4.666;2023-07-30T07:45:54;19.90;;;6.53;;
53036;SDS011;38924;52.134;4.666;2023-07-30T07:48:20;16.88;;;4.65;;
53036;SDS011;38924;52.134;4.666;2023-07-30T07:50:46;15.48;;;4.45;;
53036;SDS011;38924;52.134;4.666;2023-07-30T07:53:11;22.45;;;4.97;;
53036;SDS011;38924;52.134;4.666;2023-07-30T07:55:37;17.08;;;5.80;;
53036;SDS011;38924;52.134;4.666;2023-07-30T07:58:03;17.55;;;5.75;;
53036;SDS011;38924;52.134;4.666;2023-07-30T08:00:28;16.63;;;3.63;;
53036;SDS011;38924;52.134;4.666;2023-07-30T08:02:54;10.50;;;3.25;;
53036;SDS011;38924;52.134;4.666;2023-07-30T08:05:20;22.80;;;5.30;;
53036;SDS011;38924;52.134;4.666;2023-07-30T08:07:46;18.45;;;5.03;;
53036;SDS011;38924;52.134;4.666;2023-07-30T08:10:12;13.32;;;4.43;;
53036;SDS011;38924;52.134;4.666;2023-07-30T08:12:37;13.13;;;4.70;;
53036;SDS011;38924;52.134;4.666;2023-07-30T08:15:04;17.83;;;4.97;;
53036;SDS011;38924;52.134;4.666;2023-07-30T08:17:29;15.77;;;5.55;;
53036;SDS011;38924;52.134;4.666;2023-07-30T08:19:55;15.93;;;5.15;;
53036;SDS011;38924;52.134;4.666;2023-07-30T08:22:21;16.85;;;5.55;;
53036;SDS011;38924;52.134;4.666;2023-07-30T08:24:46;16.73;;;5.05;;
53036;SDS011;38924;52.134;4.666;2023-07-30T08:27:12;18.88;;;5.88;;
53036;SDS011;38924;52.134;4.666;2023-07-30T08:29:38;10.43;;;5.10;;
53036;SDS011;38924;52.134;4.666;2023-07-30T08:32:03;15.85;;;5.13;;
53036;SDS011;38924;52.134;4.666;2023-07-30T08:34:29;18.10;;;4.40;;
53036;SDS011;38924;52.134;4.666;2023-07-30T08:36:55;14.52;;;5.13;;
53036;SDS011;38924;52.134;4.666;2023-07-30T08:39:21;16.70;;;5.32;;
53036;SDS011;38924;52.134;4.666;2023-07-30T08:41:46;9.55;;;4.00;;
53036;SDS011;38924;52.134;4.666;2023-07-30T08:44:13;14.00;;;4.82;;
53036;SDS011;38924;52.134;4.666;2023-07-30T08:46:38;11.93;;;4.32;;
53036;SDS011;38924;52.134;4.666;2023-07-30T08:49:04;8.52;;;4.20;;
53036;SDS011;38924;52.134;4.666;2023-07-30T08:51:30;14.73;;;6.68;;
53036;SDS011;38924;52.134;4.666;2023-07-30T08:53:57;12.98;;;6.00;;
53036;SDS011;38924;52.134;4.666;2023-07-30T08:56:22;12.65;;;6.55;;
53036;SDS011;38924;52.134;4.666;2023-07-30T08:58:48;10.65;;;5.10;;
53036;SDS011;38924;52.134;4.666;2023-07-30T09:01:16;17.17;;;5.28;;
53036;SDS011;38924;52.134;4.666;2023-07-30T09:03:43;15.43;;;5.65;;
53036;SDS011;38924;52.134;4.666;2023-07-30T09:06:09;16.75;;;6.93;;
53036;SDS011;38924;52.134;4.666;2023-07-30T09:08:35;15.48;;;7.70;;
53036;SDS011;38924;52.134;4.666;2023-07-30T09:11:07;18.05;;;7.25;;
53036;SDS011;38924;52.134;4.666;2023-07-30T09:13:37;15.98;;;7.05;;
53036;SDS011;38924;52.134;4.666;2023-07-30T09:16:10;13.05;;;5.35;;
53036;SDS011;38924;52.134;4.666;2023-07-30T09:18:45;17.00;;;5.60;;
53036;SDS011;38924;52.134;4.666;2023-07-30T09:21:11;16.55;;;5.50;;
53036;SDS011;38924;52.134;4.666;2023-07-30T09:23:46;8.63;;;4.47;;
53036;SDS011;38924;52.134;4.666;2023-07-30T09:26:12;15.35;;;5.15;;
53036;SDS011;38924;52.134;4.666;2023-07-30T09:28:41;7.50;;;5.32;;
53036;SDS011;38924;52.134;4.666;2023-07-30T09:31:07;11.40;;;5.78;;
53036;SDS011;38924;52.134;4.666;2023-07-30T09:33:40;15.88;;;6.72;;
53036;SDS011;38924;52.134;4.666;2023-07-30T09:38:38;11.15;;;5.97;;
53036;SDS011;38924;52.134;4.666;2023-07-30T09:41:04;11.90;;;7.32;;
53036;SDS011;38924;52.134;4.666;2023-07-30T09:43:35;11.15;;;7.93;;
53036;SDS011;38924;52.134;4.666;2023-07-30T09:46:02;14.95;;;8.23;;
53036;SDS011;38924;52.134;4.666;2023-07-30T09:48:31;15.23;;;7.32;;
53036;SDS011;38924;52.134;4.666;2023-07-30T09:51:01;9.68;;;6.40;;
53036;SDS011;38924;52.134;4.666;2023-07-30T09:53:34;13.52;;;7.03;;
53036;SDS011;38924;52.134;4.666;2023-07-30T09:56:02;8.70;;;7.80;;
53036;SDS011;38924;52.134;4.666;2023-07-30T09:58:31;15.75;;;10.68;;
53036;SDS011;38924;52.134;4.666;2023-07-30T10:01:00;10.32;;;7.32;;
53036;SDS011;38924;52.134;4.666;2023-07-30T10:03:26;13.35;;;9.68;;
53036;SDS011;38924;52.134;4.666;2023-07-30T10:05:58;12.85;;;7.72;;
53036;SDS011;38924;52.134;4.666;2023-07-30T10:08:25;13.07;;;8.00;;
53036;SDS011;38924;52.134;4.666;2023-07-30T10:10:52;11.07;;;8.27;;
53036;SDS011;38924;52.134;4.666;2023-07-30T10:13:19;10.98;;;7.78;;
53036;SDS011;38924;52.134;4.666;2023-07-30T10:15:48;15.60;;;7.47;;
53036;SDS011;38924;52.134;4.666;2023-07-30T10:18:14;20.73;;;10.40;;
53036;SDS011;38924;52.134;4.666;2023-07-30T10:20:45;17.48;;;8.00;;
53036;SDS011;38924;52.134;4.666;2023-07-30T10:23:17;15.48;;;10.60;;
53036;SDS011;38924;52.134;4.666;2023-07-30T10:28:10;15.55;;;7.15;;
53036;SDS011;38924;52.134;4.666;2023-07-30T10:30:57;12.75;;;6.68;;
53036;SDS011;38924;52.134;4.666;2023-07-30T10:33:23;11.65;;;5.80;;
53036;SDS011;38924;52.134;4.666;2023-07-30T10:35:52;11.68;;;5.40;;
53036;SDS011;38924;52.134;4.666;2023-07-30T10:38:27;14.00;;;5.95;;
53036;SDS011;38924;52.134;4.666;2023-07-30T10:41:36;12.32;;;4.68;;
53036;SDS011;38924;52.134;4.666;2023-07-30T10:43:47;10.40;;;5.28;;
53036;SDS011;38924;52.134;4.666;2023-07-30T10:46:14;11.45;;;5.15;;
53036;SDS011;38924;52.134;4.666;2023-07-30T10:48:44;19.52;;;5.47;;
53036;SDS011;38924;52.134;4.666;2023-07-30T10:51:12;16.23;;;6.50;;
53036;SDS011;38924;52.134;4.666;2023-07-30T10:53:38;12.63;;;4.32;;
53036;SDS011;38924;52.134;4.666;2023-07-30T10:56:06;13.52;;;4.57;;
53036;SDS011;38924;52.134;4.666;2023-07-30T10:58:33;12.93;;;5.72;;
53036;SDS011;38924;52.134;4.666;2023-07-30T11:01:00;13.15;;;7.57;;
53036;SDS011;38924;52.134;4.666;2023-07-30T11:03:27;9.77;;;5.20;;
53036;SDS011;38924;52.134;4.666;2023-07-30T11:05:54;16.40;;;5.68;;
53036;SDS011;38924;52.134;4.666;2023-07-30T11:08:32;9.93;;;5.60;;
53036;SDS011;38924;52.134;4.666;2023-07-30T11:10:58;13.95;;;4.50;;
53036;SDS011;38924;52.134;4.666;2023-07-30T11:13:24;10.43;;;4.70;;
53036;SDS011;38924;52.134;4.666;2023-07-30T11:15:50;17.92;;;6.13;;
53036;SDS011;38924;52.134;4.666;2023-07-30T11:18:16;17.00;;;7.45;;
53036;SDS011;38924;52.134;4.666;2023-07-30T11:20:42;9.25;;;5.55;;
53036;SDS011;38924;52.134;4.666;2023-07-30T11:23:23;10.07;;;6.05;;
53036;SDS011;38924;52.134;4.666;2023-07-30T11:25:49;9.55;;;5.20;;
53036;SDS011;38924;52.134;4.666;2023-07-30T11:28:37;12.23;;;5.82;;
53036;SDS011;38924;52.134;4.666;2023-07-30T11:31:02;12.30;;;5.28;;
53036;SDS011;38924;52.134;4.666;2023-07-30T11:33:28;10.40;;;7.05;;
53036;SDS011;38924;52.134;4.666;2023-07-30T11:35:57;15.52;;;7.10;;
53036;SDS011;38924;52.134;4.666;2023-07-30T11:38:23;18.73;;;6.78;;
53036;SDS011;38924;52.134;4.666;2023-07-30T11:40:50;15.88;;;7.80;;
53036;SDS011;38924;52.134;4.666;2023-07-30T11:43:18;11.93;;;7.18;;
53036;SDS011;38924;52.134;4.666;2023-07-30T11:45:44;13.80;;;7.85;;
53036;SDS011;38924;52.134;4.666;2023-07-30T11:48:10;12.75;;;8.18;;
53036;SDS011;38924;52.134;4.666;2023-07-30T11:50:49;15.07;;;5.72;;
53036;SDS011;38924;52.134;4.666;2023-07-30T11:53:15;13.00;;;5.43;;
53036;SDS011;38924;52.134;4.666;2023-07-30T11:55:41;13.13;;;6.45;;
53036;SDS011;38924;52.134;4.666;2023-07-30T11:58:08;8.35;;;5.70;;
53036;SDS011;38924;52.134;4.666;2023-07-30T12:00:36;13.48;;;5.45;;
53036;SDS011;38924;52.134;4.666;2023-07-30T12:03:02;8.30;;;6.07;;
53036;SDS011;38924;52.134;4.666;2023-07-30T12:05:32;16.52;;;5.97;;
53036;SDS011;38924;52.134;4.666;2023-07-30T12:07:58;9.18;;;6.47;;
53036;SDS011;38924;52.134;4.666;2023-07-30T12:10:28;8.15;;;5.15;;
53036;SDS011;38924;52.134;4.666;2023-07-30T12:12:53;8.73;;;6.53;;
53036;SDS011;38924;52.134;4.666;2023-07-30T12:15:22;13.90;;;7.80;;
53036;SDS011;38924;52.134;4.666;2023-07-30T12:17:48;10.10;;;6.55;;
53036;SDS011;38924;52.134;4.666;2023-07-30T12:20:14;7.55;;;6.05;;
53036;SDS011;38924;52.134;4.666;2023-07-30T12:22:39;8.82;;;5.18;;
53036;SDS011;38924;52.134;4.666;2023-07-30T12:25:08;11.80;;;6.13;;
53036;SDS011;38924;52.134;4.666;2023-07-30T12:27:35;7.57;;;5.90;;
53036;SDS011;38924;52.134;4.666;2023-07-30T12:30:01;13.13;;;7.13;;
53036;SDS011;38924;52.134;4.666;2023-07-30T12:32:26;12.15;;;7.50;;
53036;SDS011;38924;52.134;4.666;2023-07-30T12:34:53;12.05;;;8.52;;
53036;SDS011;38924;52.134;4.666;2023-07-30T12:37:20;15.82;;;6.75;;
53036;SDS011;38924;52.134;4.666;2023-07-30T12:39:46;13.00;;;7.28;;
53036;SDS011;38924;52.134;4.666;2023-07-30T12:42:11;13.05;;;7.45;;
53036;SDS011;38924;52.134;4.666;2023-07-30T12:44:37;12.50;;;7.43;;
53036;SDS011;38924;52.134;4.666;2023-07-30T12:47:02;9.00;;;6.13;;
53036;SDS011;38924;52.134;4.666;2023-07-30T12:49:28;13.98;;;6.50;;
53036;SDS011;38924;52.134;4.666;2023-07-30T12:51:54;12.45;;;5.18;;
53036;SDS011;38924;52.134;4.666;2023-07-30T12:54:20;12.15;;;6.10;;
53036;SDS011;38924;52.134;4.666;2023-07-30T12:56:45;19.35;;;8.32;;
53036;SDS011;38924;52.134;4.666;2023-07-30T12:59:11;9.80;;;4.80;;
53036;SDS011;38924;52.134;4.666;2023-07-30T13:01:37;15.68;;;7.40;;
53036;SDS011;38924;52.134;4.666;2023-07-30T13:04:02;11.65;;;5.70;;
53036;SDS011;38924;52.134;4.666;2023-07-30T13:06:28;13.95;;;5.47;;
53036;SDS011;38924;52.134;4.666;2023-07-30T13:08:54;13.15;;;6.75;;
53036;SDS011;38924;52.134;4.666;2023-07-30T13:11:20;10.18;;;5.75;;
53036;SDS011;38924;52.134;4.666;2023-07-30T13:13:45;12.93;;;6.18;;
53036;SDS011;38924;52.134;4.666;2023-07-30T13:16:11;11.18;;;5.40;;
53036;SDS011;38924;52.134;4.666;2023-07-30T13:18:37;8.82;;;5.75;;
53036;SDS011;38924;52.134;4.666;2023-07-30T13:21:02;4.78;;;4.13;;
53036;SDS011;38924;52.134;4.666;2023-07-30T13:23:29;11.48;;;5.88;;
53036;SDS011;38924;52.134;4.666;2023-07-30T13:25:56;10.80;;;5.70;;
53036;SDS011;38924;52.134;4.666;2023-07-30T13:28:22;22.00;;;5.60;;
53036;SDS011;38924;52.134;4.666;2023-07-30T13:30:49;15.13;;;5.90;;
53036;SDS011;38924;52.134;4.666;2023-07-30T13:33:16;14.02;;;5.15;;
53036;SDS011;38924;52.134;4.666;2023-07-30T13:35:42;12.98;;;5.47;;
53036;SDS011;38924;52.134;4.666;2023-07-30T13:38:07;12.90;;;5.65;;
53036;SDS011;38924;52.134;4.666;2023-07-30T13:40:33;15.63;;;5.88;;
53036;SDS011;38924;52.134;4.666;2023-07-30T13:42:59;19.45;;;5.43;;
53036;SDS011;38924;52.134;4.666;2023-07-30T13:45:24;11.68;;;5.97;;
53036;SDS011;38924;52.134;4.666;2023-07-30T13:47:50;20.45;;;7.57;;
53036;SDS011;38924;52.134;4.666;2023-07-30T13:50:16;13.65;;;5.80;;
53036;SDS011;38924;52.134;4.666;2023-07-30T13:52:42;16.70;;;6.20;;
53036;SDS011;38924;52.134;4.666;2023-07-30T13:55:08;15.02;;;5.63;;
53036;SDS011;38924;52.134;4.666;2023-07-30T13:57:34;15.10;;;6.05;;
53036;SDS011;38924;52.134;4.666;2023-07-30T13:59:59;18.98;;;6.50;;
53036;SDS011;38924;52.134;4.666;2023-07-30T14:02:25;15.73;;;5.50;;
53036;SDS011;38924;52.134;4.666;2023-07-30T14:04:51;19.83;;;6.28;;
53036;SDS011;38924;52.134;4.666;2023-07-30T14:07:17;14.77;;;5.65;;
53036;SDS011;38924;52.134;4.666;2023-07-30T14:09:42;22.65;;;5.95;;
53036;SDS011;38924;52.134;4.666;2023-07-30T14:12:08;15.20;;;5.97;;
53036;SDS011;38924;52.134;4.666;2023-07-30T14:14:34;23.70;;;4.80;;
53036;SDS011;38924;52.134;4.666;2023-07-30T14:17:00;14.32;;;5.50;;
53036;SDS011;38924;52.134;4.666;2023-07-30T14:19:31;19.73;;;5.93;;
53036;SDS011;38924;52.134;4.666;2023-07-30T14:21:57;22.27;;;6.25;;
53036;SDS011;38924;52.134;4.666;2023-07-30T14:24:22;16.98;;;5.35;;
53036;SDS011;38924;52.134;4.666;2023-07-30T14:26:48;18.05;;;5.68;;
53036;SDS011;38924;52.134;4.666;2023-07-30T14:29:14;17.75;;;6.75;;
53036;SDS011;38924;52.134;4.666;2023-07-30T14:31:40;19.92;;;5.57;;
53036;SDS011;38924;52.134;4.666;2023-07-30T14:34:05;17.38;;;8.25;;